sensor_id;sensor_type;location;lat;lon;timestamp;P1;durP1;ratioP1;P2;durP2;ratioP2
37507;SDS011;23360;46.936;15.514;2022-07-29T00:00:50;7.38;;;3.88;;
37507;SDS011;23360;46.936;15.514;2022-07-29T00:03:17;12.02;;;4.45;;
37507;SDS011;23360;46.936;15.514;2022-07-29T00:05:43;9.70;;;4.65;;
37507;SDS011;23360;46.936;15.514;2022-07-29T00:08:10;8.15;;;4.35;;
37507;SDS011;23360;46.936;15.514;2022-07-29T00:10:37;12.95;;;3.83;;
37507;SDS011;23360;46.936;15.514;2022-07-29T00:13:04;15.75;;;4.15;;
37507;SDS011;23360;46.936;15.514;2022-07-29T00:15:31;6.60;;;4.20;;
37507;SDS011;23360;46.936;15.514;2022-07-29T00:17:57;7.65;;;4.38;;
37507;SDS011;23360;46.936;15.514;2022-07-29T00:20:24;8.43;;;4.50;;
37507;SDS011;23360;46.936;15.514;2022-07-29T00:22:50;8.32;;;4.10;;
37507;SDS011;23360;46.936;15.514;2022-07-29T00:25:16;6.32;;;3.70;;
37507;SDS011;23360;46.936;15.514;2022-07-29T00:27:43;9.13;;;4.75;;
37507;SDS011;23360;46.936;15.514;2022-07-29T00:30:09;9.05;;;4.55;;
37507;SDS011;23360;46.936;15.514;2022-07-29T00:32:36;9.65;;;4.43;;
37507;SDS011;23360;46.936;15.514;2022-07-29T00:35:03;8.32;;;4.47;;
37507;SDS011;23360;46.936;15.514;2022-07-29T00:37:48;9.50;;;5.15;;
37507;SDS011;23360;46.936;15.514;2022-07-29T00:40:15;7.93;;;4.65;;
37507;SDS011;23360;46.936;15.514;2022-07-29T00:42:45;9.82;;;5.00;;
37507;SDS011;23360;46.936;15.514;2022-07-29T00:45:12;8.63;;;5.25;;
37507;SDS011;23360;46.936;15.514;2022-07-29T00:47:38;13.30;;;5.22;;
37507;SDS011;23360;46.936;15.514;2022-07-29T00:50:06;11.43;;;4.90;;
37507;SDS011;23360;46.936;15.514;2022-07-29T00:52:33;11.68;;;5.35;;
37507;SDS011;23360;46.936;15.514;2022-07-29T00:55:05;12.20;;;4.88;;
37507;SDS011;23360;46.936;15.514;2022-07-29T00:57:36;11.40;;;6.15;;
37507;SDS011;23360;46.936;15.514;2022-07-29T01:00:04;9.35;;;5.40;;
37507;SDS011;23360;46.936;15.514;2022-07-29T01:02:30;11.75;;;6.15;;
37507;SDS011;23360;46.936;15.514;2022-07-29T01:04:57;9.30;;;5.15;;
37507;SDS011;23360;46.936;15.514;2022-07-29T01:07:25;17.60;;;5.20;;
37507;SDS011;23360;46.936;15.514;2022-07-29T01:09:52;10.48;;;4.90;;
37507;SDS011;23360;46.936;15.514;2022-07-29T01:12:21;9.30;;;5.32;;
37507;SDS011;23360;46.936;15.514;2022-07-29T01:14:49;9.00;;;5.63;;
37507;SDS011;23360;46.936;15.514;2022-07-29T01:20:03;9.32;;;4.68;;
37507;SDS011;23360;46.936;15.514;2022-07-29T01:27:32;10.38;;;5.70;;
37507;SDS011;23360;46.936;15.514;2022-07-29T01:30:04;10.60;;;6.13;;
37507;SDS011;23360;46.936;15.514;2022-07-29T01:32:35;8.68;;;5.18;;
37507;SDS011;23360;46.936;15.514;2022-07-29T01:35:04;8.55;;;5.25;;
37507;SDS011;23360;46.936;15.514;2022-07-29T01:37:50;9.63;;;5.80;;
37507;SDS011;23360;46.936;15.514;2022-07-29T01:40:28;15.15;;;5.85;;
37507;SDS011;23360;46.936;15.514;2022-07-29T01:42:57;14.40;;;6.32;;
37507;SDS011;23360;46.936;15.514;2022-07-29T01:48:04;10.43;;;5.68;;
37507;SDS011;23360;46.936;15.514;2022-07-29T01:50:53;8.63;;;5.35;;
37507;SDS011;23360;46.936;15.514;2022-07-29T01:53:34;10.07;;;5.57;;
37507;SDS011;23360;46.936;15.514;2022-07-29T01:56:03;11.20;;;6.78;;
37507;SDS011;23360;46.936;15.514;2022-07-29T01:58:31;9.45;;;5.63;;
37507;SDS011;23360;46.936;15.514;2022-07-29T02:00:58;9.48;;;5.78;;
37507;SDS011;23360;46.936;15.514;2022-07-29T02:03:25;15.07;;;6.30;;
37507;SDS011;23360;46.936;15.514;2022-07-29T02:05:53;7.95;;;5.50;;
37507;SDS011;23360;46.936;15.514;2022-07-29T02:08:21;17.38;;;6.63;;
37507;SDS011;23360;46.936;15.514;2022-07-29T02:10:49;12.43;;;6.13;;
37507;SDS011;23360;46.936;15.514;2022-07-29T02:13:16;10.27;;;5.80;;
37507;SDS011;23360;46.936;15.514;2022-07-29T02:15:44;15.18;;;5.95;;
37507;SDS011;23360;46.936;15.514;2022-07-29T02:18:13;14.50;;;6.30;;
37507;SDS011;23360;46.936;15.514;2022-07-29T02:20:41;12.00;;;6.13;;
37507;SDS011;23360;46.936;15.514;2022-07-29T02:23:09;10.52;;;5.75;;
37507;SDS011;23360;46.936;15.514;2022-07-29T02:25:36;11.75;;;5.18;;
37507;SDS011;23360;46.936;15.514;2022-07-29T02:28:03;13.82;;;6.15;;
37507;SDS011;23360;46.936;15.514;2022-07-29T02:30:30;11.18;;;5.20;;
37507;SDS011;23360;46.936;15.514;2022-07-29T02:32:57;9.10;;;5.45;;
37507;SDS011;23360;46.936;15.514;2022-07-29T02:35:24;20.80;;;5.97;;
37507;SDS011;23360;46.936;15.514;2022-07-29T02:37:51;18.20;;;6.13;;
37507;SDS011;23360;46.936;15.514;2022-07-29T02:40:37;11.80;;;7.10;;
37507;SDS011;23360;46.936;15.514;2022-07-29T02:43:05;14.40;;;6.60;;
37507;SDS011;23360;46.936;15.514;2022-07-29T02:45:32;10.98;;;5.88;;
37507;SDS011;23360;46.936;15.514;2022-07-29T02:47:59;13.82;;;7.00;;
37507;SDS011;23360;46.936;15.514;2022-07-29T02:55:43;16.85;;;6.88;;
37507;SDS011;23360;46.936;15.514;2022-07-29T03:00:46;10.30;;;6.20;;
37507;SDS011;23360;46.936;15.514;2022-07-29T03:03:14;11.68;;;5.90;;
37507;SDS011;23360;46.936;15.514;2022-07-29T03:05:42;12.98;;;6.53;;
37507;SDS011;23360;46.936;15.514;2022-07-29T03:08:11;9.75;;;5.82;;
37507;SDS011;23360;46.936;15.514;2022-07-29T03:10:39;10.52;;;6.65;;
37507;SDS011;23360;46.936;15.514;2022-07-29T03:13:09;17.02;;;6.97;;
37507;SDS011;23360;46.936;15.514;2022-07-29T03:15:35;10.95;;;5.88;;
37507;SDS011;23360;46.936;15.514;2022-07-29T03:18:03;13.93;;;6.38;;
37507;SDS011;23360;46.936;15.514;2022-07-29T03:20:29;11.13;;;6.28;;
37507;SDS011;23360;46.936;15.514;2022-07-29T03:22:56;8.25;;;5.57;;
37507;SDS011;23360;46.936;15.514;2022-07-29T03:25:22;10.85;;;5.55;;
37507;SDS011;23360;46.936;15.514;2022-07-29T03:27:49;13.50;;;6.70;;
37507;SDS011;23360;46.936;15.514;2022-07-29T03:30:15;15.50;;;6.90;;
37507;SDS011;23360;46.936;15.514;2022-07-29T03:32:47;11.95;;;6.88;;
37507;SDS011;23360;46.936;15.514;2022-07-29T03:35:14;11.57;;;5.78;;
37507;SDS011;23360;46.936;15.514;2022-07-29T03:37:43;12.40;;;7.18;;
37507;SDS011;23360;46.936;15.514;2022-07-29T03:40:11;11.43;;;6.70;;
37507;SDS011;23360;46.936;15.514;2022-07-29T03:42:39;13.07;;;6.10;;
37507;SDS011;23360;46.936;15.514;2022-07-29T03:45:07;11.00;;;6.32;;
37507;SDS011;23360;46.936;15.514;2022-07-29T03:47:35;13.35;;;6.88;;
37507;SDS011;23360;46.936;15.514;2022-07-29T03:50:17;12.65;;;6.80;;
37507;SDS011;23360;46.936;15.514;2022-07-29T03:52:45;11.60;;;6.88;;
37507;SDS011;23360;46.936;15.514;2022-07-29T03:55:12;10.18;;;6.55;;
37507;SDS011;23360;46.936;15.514;2022-07-29T03:57:40;13.13;;;7.25;;
37507;SDS011;23360;46.936;15.514;2022-07-29T04:00:06;11.25;;;6.93;;
37507;SDS011;23360;46.936;15.514;2022-07-29T04:02:33;11.00;;;7.20;;
37507;SDS011;23360;46.936;15.514;2022-07-29T04:05:00;15.35;;;7.13;;
37507;SDS011;23360;46.936;15.514;2022-07-29T04:07:29;10.75;;;6.95;;
37507;SDS011;23360;46.936;15.514;2022-07-29T04:09:56;13.55;;;6.82;;
37507;SDS011;23360;46.936;15.514;2022-07-29T04:12:22;12.48;;;7.15;;
37507;SDS011;23360;46.936;15.514;2022-07-29T04:14:49;14.27;;;8.05;;
37507;SDS011;23360;46.936;15.514;2022-07-29T04:17:16;12.00;;;7.18;;
37507;SDS011;23360;46.936;15.514;2022-07-29T04:19:43;18.05;;;7.68;;
37507;SDS011;23360;46.936;15.514;2022-07-29T04:22:09;9.98;;;6.72;;
37507;SDS011;23360;46.936;15.514;2022-07-29T04:24:35;15.30;;;7.93;;
37507;SDS011;23360;46.936;15.514;2022-07-29T04:27:02;12.52;;;7.18;;
37507;SDS011;23360;46.936;15.514;2022-07-29T04:29:29;10.55;;;7.38;;
37507;SDS011;23360;46.936;15.514;2022-07-29T04:31:55;12.70;;;7.15;;
37507;SDS011;23360;46.936;15.514;2022-07-29T04:34:21;14.98;;;7.15;;
37507;SDS011;23360;46.936;15.514;2022-07-29T04:36:54;9.55;;;6.45;;
37507;SDS011;23360;46.936;15.514;2022-07-29T04:39:20;18.25;;;6.43;;
37507;SDS011;23360;46.936;15.514;2022-07-29T04:41:48;11.73;;;7.78;;
37507;SDS011;23360;46.936;15.514;2022-07-29T04:44:17;13.50;;;6.90;;
37507;SDS011;23360;46.936;15.514;2022-07-29T04:46:44;12.20;;;7.20;;
37507;SDS011;23360;46.936;15.514;2022-07-29T04:49:11;16.33;;;8.15;;
37507;SDS011;23360;46.936;15.514;2022-07-29T04:51:38;8.90;;;6.63;;
37507;SDS011;23360;46.936;15.514;2022-07-29T04:54:04;15.23;;;7.18;;
37507;SDS011;23360;46.936;15.514;2022-07-29T04:56:31;17.23;;;8.23;;
37507;SDS011;23360;46.936;15.514;2022-07-29T04:58:57;11.57;;;7.80;;
37507;SDS011;23360;46.936;15.514;2022-07-29T05:01:24;14.57;;;6.95;;
37507;SDS011;23360;46.936;15.514;2022-07-29T05:03:51;15.15;;;7.03;;
37507;SDS011;23360;46.936;15.514;2022-07-29T05:06:22;9.35;;;6.10;;
37507;SDS011;23360;46.936;15.514;2022-07-29T05:08:48;14.43;;;8.20;;
37507;SDS011;23360;46.936;15.514;2022-07-29T05:11:15;11.02;;;7.25;;
37507;SDS011;23360;46.936;15.514;2022-07-29T05:13:47;16.45;;;7.43;;
37507;SDS011;23360;46.936;15.514;2022-07-29T05:16:14;14.48;;;6.63;;
37507;SDS011;23360;46.936;15.514;2022-07-29T05:18:40;17.55;;;6.93;;
37507;SDS011;23360;46.936;15.514;2022-07-29T05:21:07;10.30;;;6.30;;
37507;SDS011;23360;46.936;15.514;2022-07-29T05:23:33;8.77;;;6.35;;
37507;SDS011;23360;46.936;15.514;2022-07-29T05:26:00;11.20;;;6.15;;
37507;SDS011;23360;46.936;15.514;2022-07-29T05:28:26;10.93;;;6.72;;
37507;SDS011;23360;46.936;15.514;2022-07-29T05:30:53;10.77;;;6.57;;
37507;SDS011;23360;46.936;15.514;2022-07-29T05:33:19;18.42;;;6.68;;
37507;SDS011;23360;46.936;15.514;2022-07-29T05:36:01;12.88;;;6.32;;
37507;SDS011;23360;46.936;15.514;2022-07-29T05:38:28;15.80;;;7.18;;
37507;SDS011;23360;46.936;15.514;2022-07-29T05:40:56;9.48;;;6.25;;
37507;SDS011;23360;46.936;15.514;2022-07-29T05:43:22;13.45;;;5.93;;
37507;SDS011;23360;46.936;15.514;2022-07-29T05:45:49;14.95;;;6.10;;
37507;SDS011;23360;46.936;15.514;2022-07-29T05:48:15;9.35;;;6.13;;
37507;SDS011;23360;46.936;15.514;2022-07-29T05:50:42;13.55;;;5.97;;
37507;SDS011;23360;46.936;15.514;2022-07-29T05:53:09;15.95;;;6.88;;
37507;SDS011;23360;46.936;15.514;2022-07-29T05:55:45;10.75;;;5.93;;
37507;SDS011;23360;46.936;15.514;2022-07-29T05:58:12;12.93;;;6.72;;
37507;SDS011;23360;46.936;15.514;2022-07-29T06:00:38;16.45;;;6.82;;
37507;SDS011;23360;46.936;15.514;2022-07-29T06:03:06;10.82;;;6.63;;
37507;SDS011;23360;46.936;15.514;2022-07-29T06:05:32;11.60;;;6.90;;
37507;SDS011;23360;46.936;15.514;2022-07-29T06:07:59;11.10;;;6.70;;
37507;SDS011;23360;46.936;15.514;2022-07-29T06:10:25;14.90;;;6.20;;
37507;SDS011;23360;46.936;15.514;2022-07-29T06:12:53;11.60;;;6.45;;
37507;SDS011;23360;46.936;15.514;2022-07-29T06:15:19;14.18;;;6.25;;
37507;SDS011;23360;46.936;15.514;2022-07-29T06:17:46;11.60;;;6.38;;
37507;SDS011;23360;46.936;15.514;2022-07-29T06:20:30;15.57;;;6.18;;
37507;SDS011;23360;46.936;15.514;2022-07-29T06:22:57;15.52;;;5.90;;
37507;SDS011;23360;46.936;15.514;2022-07-29T06:25:24;12.90;;;6.03;;
37507;SDS011;23360;46.936;15.514;2022-07-29T06:27:50;17.48;;;5.72;;
37507;SDS011;23360;46.936;15.514;2022-07-29T06:30:17;13.82;;;5.88;;
37507;SDS011;23360;46.936;15.514;2022-07-29T06:32:43;9.35;;;5.63;;
37507;SDS011;23360;46.936;15.514;2022-07-29T06:35:10;13.55;;;6.13;;
37507;SDS011;23360;46.936;15.514;2022-07-29T06:37:56;10.13;;;5.63;;
37507;SDS011;23360;46.936;15.514;2022-07-29T06:40:25;9.25;;;5.55;;
37507;SDS011;23360;46.936;15.514;2022-07-29T06:43:10;9.48;;;5.35;;
37507;SDS011;23360;46.936;15.514;2022-07-29T06:45:37;9.05;;;5.13;;
37507;SDS011;23360;46.936;15.514;2022-07-29T06:48:07;11.63;;;4.68;;
37507;SDS011;23360;46.936;15.514;2022-07-29T06:50:34;17.75;;;5.18;;
37507;SDS011;23360;46.936;15.514;2022-07-29T06:53:00;12.57;;;6.07;;
37507;SDS011;23360;46.936;15.514;2022-07-29T06:55:27;11.50;;;4.85;;
37507;SDS011;23360;46.936;15.514;2022-07-29T06:57:53;8.80;;;4.82;;
37507;SDS011;23360;46.936;15.514;2022-07-29T07:00:20;14.98;;;5.40;;
37507;SDS011;23360;46.936;15.514;2022-07-29T07:02:46;8.35;;;4.70;;
37507;SDS011;23360;46.936;15.514;2022-07-29T07:05:13;8.68;;;4.75;;
37507;SDS011;23360;46.936;15.514;2022-07-29T07:07:41;9.82;;;4.70;;
37507;SDS011;23360;46.936;15.514;2022-07-29T07:10:08;9.98;;;4.95;;
37507;SDS011;23360;46.936;15.514;2022-07-29T07:12:34;9.48;;;5.25;;
37507;SDS011;23360;46.936;15.514;2022-07-29T07:15:01;9.27;;;4.97;;
37507;SDS011;23360;46.936;15.514;2022-07-29T07:17:27;7.88;;;4.85;;
37507;SDS011;23360;46.936;15.514;2022-07-29T07:19:54;9.30;;;4.85;;
37507;SDS011;23360;46.936;15.514;2022-07-29T07:22:20;13.80;;;5.07;;
37507;SDS011;23360;46.936;15.514;2022-07-29T07:24:47;8.80;;;4.45;;
37507;SDS011;23360;46.936;15.514;2022-07-29T07:27:13;16.10;;;4.65;;
37507;SDS011;23360;46.936;15.514;2022-07-29T07:29:40;9.38;;;5.38;;
37507;SDS011;23360;46.936;15.514;2022-07-29T07:32:09;12.23;;;4.20;;
37507;SDS011;23360;46.936;15.514;2022-07-29T07:34:36;9.07;;;4.88;;
37507;SDS011;23360;46.936;15.514;2022-07-29T07:37:04;8.57;;;4.93;;
37507;SDS011;23360;46.936;15.514;2022-07-29T07:39:31;10.90;;;5.03;;
37507;SDS011;23360;46.936;15.514;2022-07-29T07:41:57;10.25;;;4.82;;
37507;SDS011;23360;46.936;15.514;2022-07-29T07:44:24;8.68;;;4.70;;
37507;SDS011;23360;46.936;15.514;2022-07-29T07:46:50;11.20;;;4.30;;
37507;SDS011;23360;46.936;15.514;2022-07-29T07:49:17;9.27;;;5.10;;
37507;SDS011;23360;46.936;15.514;2022-07-29T07:51:44;12.35;;;4.40;;
37507;SDS011;23360;46.936;15.514;2022-07-29T07:54:16;6.28;;;3.80;;
37507;SDS011;23360;46.936;15.514;2022-07-29T07:56:45;9.48;;;4.25;;
37507;SDS011;23360;46.936;15.514;2022-07-29T07:59:18;10.38;;;4.57;;
37507;SDS011;23360;46.936;15.514;2022-07-29T08:01:44;7.53;;;3.38;;
37507;SDS011;23360;46.936;15.514;2022-07-29T08:04:21;9.70;;;4.43;;
37507;SDS011;23360;46.936;15.514;2022-07-29T08:06:53;8.50;;;3.78;;
37507;SDS011;23360;46.936;15.514;2022-07-29T08:09:20;6.35;;;3.88;;
37507;SDS011;23360;46.936;15.514;2022-07-29T08:11:55;8.23;;;3.80;;
37507;SDS011;23360;46.936;15.514;2022-07-29T08:14:22;11.13;;;3.50;;
37507;SDS011;23360;46.936;15.514;2022-07-29T08:16:48;7.88;;;3.60;;
37507;SDS011;23360;46.936;15.514;2022-07-29T08:19:15;9.05;;;3.95;;
37507;SDS011;23360;46.936;15.514;2022-07-29T08:21:42;5.53;;;3.45;;
37507;SDS011;23360;46.936;15.514;2022-07-29T08:24:08;10.20;;;4.07;;
37507;SDS011;23360;46.936;15.514;2022-07-29T08:26:53;6.88;;;3.03;;
37507;SDS011;23360;46.936;15.514;2022-07-29T08:29:19;11.75;;;3.38;;
37507;SDS011;23360;46.936;15.514;2022-07-29T08:31:46;8.18;;;3.55;;
37507;SDS011;23360;46.936;15.514;2022-07-29T08:34:12;6.80;;;3.33;;
37507;SDS011;23360;46.936;15.514;2022-07-29T08:36:39;13.98;;;3.40;;
37507;SDS011;23360;46.936;15.514;2022-07-29T08:39:05;7.55;;;2.65;;
37507;SDS011;23360;46.936;15.514;2022-07-29T08:41:32;10.40;;;2.90;;
37507;SDS011;23360;46.936;15.514;2022-07-29T08:43:58;10.40;;;3.55;;
37507;SDS011;23360;46.936;15.514;2022-07-29T08:46:25;7.20;;;3.17;;
37507;SDS011;23360;46.936;15.514;2022-07-29T08:48:51;8.07;;;3.05;;
37507;SDS011;23360;46.936;15.514;2022-07-29T08:51:18;13.60;;;3.47;;
37507;SDS011;23360;46.936;15.514;2022-07-29T08:53:46;8.80;;;2.97;;
37507;SDS011;23360;46.936;15.514;2022-07-29T08:56:15;6.80;;;3.38;;
37507;SDS011;23360;46.936;15.514;2022-07-29T08:58:43;5.45;;;3.15;;
37507;SDS011;23360;46.936;15.514;2022-07-29T09:01:17;7.47;;;3.65;;
37507;SDS011;23360;46.936;15.514;2022-07-29T09:03:47;7.00;;;2.72;;
37507;SDS011;23360;46.936;15.514;2022-07-29T09:06:15;5.97;;;2.97;;
37507;SDS011;23360;46.936;15.514;2022-07-29T09:08:43;7.40;;;3.58;;
37507;SDS011;23360;46.936;15.514;2022-07-29T09:11:11;7.47;;;3.45;;
37507;SDS011;23360;46.936;15.514;2022-07-29T09:13:37;7.75;;;3.92;;
37507;SDS011;23360;46.936;15.514;2022-07-29T09:16:04;6.90;;;3.20;;
37507;SDS011;23360;46.936;15.514;2022-07-29T09:18:41;9.77;;;3.40;;
37507;SDS011;23360;46.936;15.514;2022-07-29T09:21:12;7.38;;;3.67;;
37507;SDS011;23360;46.936;15.514;2022-07-29T09:24:08;6.13;;;3.50;;
37507;SDS011;23360;46.936;15.514;2022-07-29T09:26:44;6.90;;;3.20;;
37507;SDS011;23360;46.936;15.514;2022-07-29T09:29:11;9.30;;;3.08;;
37507;SDS011;23360;46.936;15.514;2022-07-29T09:31:41;9.70;;;3.60;;
37507;SDS011;23360;46.936;15.514;2022-07-29T09:34:08;12.40;;;3.28;;
37507;SDS011;23360;46.936;15.514;2022-07-29T09:36:42;5.95;;;3.13;;
37507;SDS011;23360;46.936;15.514;2022-07-29T09:39:09;8.80;;;3.08;;
37507;SDS011;23360;46.936;15.514;2022-07-29T09:41:47;4.82;;;2.78;;
37507;SDS011;23360;46.936;15.514;2022-07-29T09:44:13;5.10;;;2.80;;
37507;SDS011;23360;46.936;15.514;2022-07-29T09:46:52;10.68;;;2.80;;
37507;SDS011;23360;46.936;15.514;2022-07-29T09:49:19;12.98;;;3.10;;
37507;SDS011;23360;46.936;15.514;2022-07-29T09:51:46;9.38;;;2.92;;
37507;SDS011;23360;46.936;15.514;2022-07-29T09:54:26;5.72;;;2.85;;
37507;SDS011;23360;46.936;15.514;2022-07-29T09:56:57;6.10;;;2.88;;
37507;SDS011;23360;46.936;15.514;2022-07-29T09:59:25;6.28;;;2.97;;
37507;SDS011;23360;46.936;15.514;2022-07-29T10:01:55;6.85;;;2.55;;
37507;SDS011;23360;46.936;15.514;2022-07-29T10:04:24;9.10;;;2.97;;
37507;SDS011;23360;46.936;15.514;2022-07-29T10:07:02;6.03;;;2.53;;
37507;SDS011;23360;46.936;15.514;2022-07-29T10:09:31;4.85;;;2.90;;
37507;SDS011;23360;46.936;15.514;2022-07-29T10:12:08;23.55;;;2.72;;
37507;SDS011;23360;46.936;15.514;2022-07-29T10:14:40;8.87;;;3.07;;
37507;SDS011;23360;46.936;15.514;2022-07-29T10:17:08;6.80;;;2.45;;
37507;SDS011;23360;46.936;15.514;2022-07-29T10:19:36;5.50;;;2.60;;
37507;SDS011;23360;46.936;15.514;2022-07-29T10:22:04;10.20;;;2.88;;
37507;SDS011;23360;46.936;15.514;2022-07-29T10:24:30;5.20;;;2.35;;
37507;SDS011;23360;46.936;15.514;2022-07-29T10:26:58;9.48;;;2.50;;
37507;SDS011;23360;46.936;15.514;2022-07-29T10:29:25;7.38;;;2.78;;
37507;SDS011;23360;46.936;15.514;2022-07-29T10:39:32;5.15;;;2.47;;
37507;SDS011;23360;46.936;15.514;2022-07-29T10:42:15;6.15;;;2.30;;
37507;SDS011;23360;46.936;15.514;2022-07-29T10:44:45;8.75;;;2.65;;
37507;SDS011;23360;46.936;15.514;2022-07-29T10:47:30;6.00;;;2.33;;
37507;SDS011;23360;46.936;15.514;2022-07-29T10:50:04;8.65;;;2.50;;
37507;SDS011;23360;46.936;15.514;2022-07-29T10:53:13;7.70;;;2.25;;
37507;SDS011;23360;46.936;15.514;2022-07-29T10:55:35;4.60;;;2.08;;
37507;SDS011;23360;46.936;15.514;2022-07-29T11:00:45;7.07;;;2.25;;
37507;SDS011;23360;46.936;15.514;2022-07-29T11:03:57;6.72;;;2.47;;
37507;SDS011;23360;46.936;15.514;2022-07-29T11:05:59;7.25;;;2.70;;
37507;SDS011;23360;46.936;15.514;2022-07-29T11:08:25;5.68;;;2.45;;
37507;SDS011;23360;46.936;15.514;2022-07-29T11:13:46;5.95;;;2.47;;
37507;SDS011;23360;46.936;15.514;2022-07-29T11:16:14;12.47;;;3.10;;
37507;SDS011;23360;46.936;15.514;2022-07-29T11:21:37;9.95;;;2.70;;
37507;SDS011;23360;46.936;15.514;2022-07-29T11:24:28;7.95;;;2.95;;
37507;SDS011;23360;46.936;15.514;2022-07-29T11:29:48;11.82;;;2.80;;
37507;SDS011;23360;46.936;15.514;2022-07-29T11:32:16;9.25;;;2.72;;
37507;SDS011;23360;46.936;15.514;2022-07-29T11:34:49;5.35;;;2.25;;
37507;SDS011;23360;46.936;15.514;2022-07-29T11:37:18;6.57;;;2.55;;
37507;SDS011;23360;46.936;15.514;2022-07-29T11:45:16;12.73;;;2.80;;
37507;SDS011;23360;46.936;15.514;2022-07-29T11:48:03;5.35;;;2.20;;
37507;SDS011;23360;46.936;15.514;2022-07-29T11:50:51;10.90;;;2.60;;
37507;SDS011;23360;46.936;15.514;2022-07-29T11:53:18;7.18;;;2.55;;
37507;SDS011;23360;46.936;15.514;2022-07-29T11:55:45;9.10;;;2.15;;
37507;SDS011;23360;46.936;15.514;2022-07-29T11:58:20;7.80;;;2.87;;
37507;SDS011;23360;46.936;15.514;2022-07-29T12:00:50;12.93;;;2.67;;
37507;SDS011;23360;46.936;15.514;2022-07-29T12:03:23;10.05;;;2.55;;
37507;SDS011;23360;46.936;15.514;2022-07-29T12:06:01;6.82;;;2.85;;
37507;SDS011;23360;46.936;15.514;2022-07-29T12:08:28;8.60;;;2.33;;
37507;SDS011;23360;46.936;15.514;2022-07-29T12:10:55;8.23;;;2.30;;
37507;SDS011;23360;46.936;15.514;2022-07-29T12:13:22;4.82;;;2.40;;
37507;SDS011;23360;46.936;15.514;2022-07-29T12:16:03;5.13;;;2.20;;
37507;SDS011;23360;46.936;15.514;2022-07-29T12:18:30;5.57;;;2.60;;
37507;SDS011;23360;46.936;15.514;2022-07-29T13:13:21;5.53;;;2.42;;
37507;SDS011;23360;46.936;15.514;2022-07-29T13:15:53;8.25;;;2.63;;
37507;SDS011;23360;46.936;15.514;2022-07-29T13:18:34;11.65;;;2.38;;
37507;SDS011;23360;46.936;15.514;2022-07-29T13:21:14;5.47;;;2.55;;
37507;SDS011;23360;46.936;15.514;2022-07-29T13:23:41;6.25;;;2.83;;
37507;SDS011;23360;46.936;15.514;2022-07-29T13:26:09;7.38;;;2.97;;
37507;SDS011;23360;46.936;15.514;2022-07-29T13:28:35;4.35;;;2.60;;
37507;SDS011;23360;46.936;15.514;2022-07-29T13:31:02;6.22;;;2.83;;
37507;SDS011;23360;46.936;15.514;2022-07-29T13:33:28;5.53;;;2.80;;
37507;SDS011;23360;46.936;15.514;2022-07-29T13:35:56;12.20;;;2.85;;
37507;SDS011;23360;46.936;15.514;2022-07-29T13:38:22;10.18;;;2.80;;
37507;SDS011;23360;46.936;15.514;2022-07-29T13:40:56;5.88;;;2.65;;
37507;SDS011;23360;46.936;15.514;2022-07-29T13:43:22;9.45;;;2.70;;
37507;SDS011;23360;46.936;15.514;2022-07-29T13:45:49;5.47;;;3.00;;
37507;SDS011;23360;46.936;15.514;2022-07-29T13:48:15;8.55;;;2.85;;
37507;SDS011;23360;46.936;15.514;2022-07-29T13:50:42;6.30;;;2.80;;
37507;SDS011;23360;46.936;15.514;2022-07-29T13:53:08;5.28;;;2.70;;
37507;SDS011;23360;46.936;15.514;2022-07-29T13:55:43;12.10;;;3.05;;
37507;SDS011;23360;46.936;15.514;2022-07-29T13:58:10;6.72;;;3.10;;
37507;SDS011;23360;46.936;15.514;2022-07-29T14:00:36;5.70;;;3.00;;
37507;SDS011;23360;46.936;15.514;2022-07-29T14:03:03;6.53;;;2.95;;
37507;SDS011;23360;46.936;15.514;2022-07-29T14:05:29;6.57;;;2.92;;
37507;SDS011;23360;46.936;15.514;2022-07-29T14:07:55;11.88;;;3.42;;
37507;SDS011;23360;46.936;15.514;2022-07-29T14:10:22;5.57;;;3.10;;
37507;SDS011;23360;46.936;15.514;2022-07-29T14:12:48;12.45;;;3.45;;
37507;SDS011;23360;46.936;15.514;2022-07-29T14:15:15;10.10;;;3.00;;
37507;SDS011;23360;46.936;15.514;2022-07-29T14:17:41;4.85;;;2.75;;
37507;SDS011;23360;46.936;15.514;2022-07-29T14:20:08;8.13;;;3.17;;
37507;SDS011;23360;46.936;15.514;2022-07-29T14:22:34;5.93;;;3.28;;
37507;SDS011;23360;46.936;15.514;2022-07-29T14:25:08;6.82;;;3.88;;
37507;SDS011;23360;46.936;15.514;2022-07-29T14:27:40;9.57;;;3.25;;
37507;SDS011;23360;46.936;15.514;2022-07-29T14:30:07;5.57;;;2.92;;
37507;SDS011;23360;46.936;15.514;2022-07-29T14:32:34;7.95;;;2.83;;
37507;SDS011;23360;46.936;15.514;2022-07-29T14:35:00;7.57;;;2.70;;
37507;SDS011;23360;46.936;15.514;2022-07-29T14:37:30;8.38;;;2.90;;
37507;SDS011;23360;46.936;15.514;2022-07-29T14:40:06;5.97;;;2.85;;
37507;SDS011;23360;46.936;15.514;2022-07-29T14:42:33;7.53;;;2.78;;
37507;SDS011;23360;46.936;15.514;2022-07-29T14:44:59;4.80;;;2.38;;
37507;SDS011;23360;46.936;15.514;2022-07-29T14:47:26;5.90;;;2.75;;
37507;SDS011;23360;46.936;15.514;2022-07-29T14:49:52;9.82;;;2.78;;
37507;SDS011;23360;46.936;15.514;2022-07-29T14:52:19;7.65;;;2.80;;
37507;SDS011;23360;46.936;15.514;2022-07-29T14:54:45;6.93;;;2.78;;
37507;SDS011;23360;46.936;15.514;2022-07-29T14:57:12;6.22;;;2.75;;
37507;SDS011;23360;46.936;15.514;2022-07-29T14:59:39;8.55;;;2.60;;
37507;SDS011;23360;46.936;15.514;2022-07-29T15:02:05;4.60;;;2.38;;
37507;SDS011;23360;46.936;15.514;2022-07-29T15:04:32;5.65;;;2.30;;
37507;SDS011;23360;46.936;15.514;2022-07-29T15:06:58;5.13;;;2.53;;
37507;SDS011;23360;46.936;15.514;2022-07-29T15:09:25;6.75;;;2.50;;
37507;SDS011;23360;46.936;15.514;2022-07-29T15:11:51;9.10;;;2.72;;
37507;SDS011;23360;46.936;15.514;2022-07-29T15:14:18;9.25;;;2.67;;
37507;SDS011;23360;46.936;15.514;2022-07-29T15:16:44;4.57;;;2.22;;
37507;SDS011;23360;46.936;15.514;2022-07-29T15:19:13;5.32;;;2.42;;
37507;SDS011;23360;46.936;15.514;2022-07-29T15:21:39;9.63;;;2.35;;
37507;SDS011;23360;46.936;15.514;2022-07-29T15:24:14;4.72;;;2.30;;
37507;SDS011;23360;46.936;15.514;2022-07-29T15:26:40;8.48;;;2.45;;
37507;SDS011;23360;46.936;15.514;2022-07-29T15:29:08;5.45;;;2.63;;
37507;SDS011;23360;46.936;15.514;2022-07-29T15:31:35;5.00;;;2.80;;
37507;SDS011;23360;46.936;15.514;2022-07-29T15:34:01;5.70;;;2.65;;
37507;SDS011;23360;46.936;15.514;2022-07-29T15:36:31;6.50;;;2.30;;
37507;SDS011;23360;46.936;15.514;2022-07-29T15:39:18;7.13;;;2.88;;
37507;SDS011;23360;46.936;15.514;2022-07-29T15:41:45;7.00;;;3.03;;
37507;SDS011;23360;46.936;15.514;2022-07-29T15:44:11;8.98;;;2.72;;
37507;SDS011;23360;46.936;15.514;2022-07-29T15:46:38;4.25;;;2.20;;
37507;SDS011;23360;46.936;15.514;2022-07-29T15:49:23;7.47;;;2.50;;
37507;SDS011;23360;46.936;15.514;2022-07-29T15:52:15;8.88;;;2.97;;
37507;SDS011;23360;46.936;15.514;2022-07-29T15:54:42;8.77;;;2.72;;
37507;SDS011;23360;46.936;15.514;2022-07-29T15:57:08;6.50;;;2.58;;
37507;SDS011;23360;46.936;15.514;2022-07-29T15:59:35;4.78;;;2.50;;
37507;SDS011;23360;46.936;15.514;2022-07-29T16:02:02;7.57;;;2.78;;
37507;SDS011;23360;46.936;15.514;2022-07-29T16:04:28;8.70;;;2.65;;
37507;SDS011;23360;46.936;15.514;2022-07-29T16:06:55;8.80;;;2.63;;
37507;SDS011;23360;46.936;15.514;2022-07-29T16:09:22;6.78;;;2.50;;
37507;SDS011;23360;46.936;15.514;2022-07-29T16:11:49;7.78;;;2.83;;
37507;SDS011;23360;46.936;15.514;2022-07-29T16:14:18;5.35;;;2.20;;